Time;durP1;ratioP1;P1;durP2;ratioP2;P2;SDS_P1;SDS_P2;PMS_P1;PMS_P2;Temp;Humidity;BMP_temperature;BMP_pressure;BME280_temperature;BME280_humidity;BME280_pressure;Samples;Min_cycle;Max_cycle;Signal;HPM_P1;HPM_P2
2022/12/21 00:00:01;;;;;;;5.43;4.93;;;13.60;77.00;;;;;;5031605;28;20221;-56
2022/12/21 00:02:39;;;;;;;10.25;5.60;;;13.60;77.70;;;;;;5036956;28;20708;-56
2022/12/21 00:05:08;;;;;;;5.50;4.72;;;13.60;77.10;;;;;;5044510;28;20034;-56
2022/12/21 00:07:36;;;;;;;6.38;5.78;;;13.60;77.10;;;;;;5050906;28;20587;-56
2022/12/21 00:10:04;;;;;;;5.97;5.38;;;13.60;77.10;;;;;;5043320;28;20587;-56
2022/12/21 00:12:34;;;;;;;7.45;6.10;;;13.60;77.20;;;;;;5049032;28;20068;-56
2022/12/21 00:15:03;;;;;;;8.75;6.57;;;13.50;77.20;;;;;;5048057;28;20036;-56
2022/12/21 00:17:34;;;;;;;6.47;5.75;;;13.60;77.30;;;;;;5042378;28;20140;-56
2022/12/21 00:20:07;;;;;;;6.50;5.72;;;13.50;77.40;;;;;;5038390;28;20080;-57
2022/12/21 00:22:33;;;;;;;6.97;5.80;;;13.50;77.20;;;;;;5042745;28;20042;-56
2022/12/21 00:25:00;;;;;;;10.30;6.47;;;13.60;77.30;;;;;;5045349;28;20044;-54
2022/12/21 00:27:30;;;;;;;7.07;6.32;;;13.50;77.30;;;;;;5042787;28;20059;-56
2022/12/21 00:30:00;;;;;;;8.02;6.30;;;13.50;77.40;;;;;;5049829;28;20537;-56
2022/12/21 00:32:28;;;;;;;6.93;6.22;;;13.50;77.40;;;;;;5046754;28;20397;-56
2022/12/21 00:34:55;;;;;;;7.47;6.40;;;13.50;77.40;;;;;;5039739;28;20072;-55
2022/12/21 00:37:24;;;;;;;8.02;7.03;;;13.50;77.40;;;;;;5033782;28;20053;-57
2022/12/21 00:39:55;;;;;;;8.63;6.80;;;13.50;77.40;;;;;;5033037;28;20673;-56
2022/12/21 00:42:22;;;;;;;7.93;6.68;;;13.50;77.40;;;;;;5044652;28;20118;-56
2022/12/21 00:44:51;;;;;;;10.32;7.25;;;13.50;77.50;;;;;;5047232;28;20527;-56
2022/12/21 00:47:18;;;;;;;8.20;6.68;;;13.50;77.50;;;;;;5043592;28;20493;-56
2022/12/21 00:49:44;;;;;;;8.98;6.97;;;13.50;77.50;;;;;;5046426;28;20099;-56
2022/12/21 00:52:15;;;;;;;8.43;6.75;;;13.50;77.60;;;;;;5046304;28;20116;-56
2022/12/21 00:54:42;;;;;;;8.50;7.60;;;13.50;77.60;;;;;;5042983;28;20497;-56
2022/12/21 00:57:12;;;;;;;8.38;6.68;;;13.50;77.50;;;;;;5037728;28;20099;-56
2022/12/21 00:59:39;;;;;;;9.45;7.10;;;13.50;77.60;;;;;;5037392;28;20065;-56
2022/12/21 01:02:05;;;;;;;8.75;7.10;;;13.50;77.50;;;;;;5044668;28;20099;-56
2022/12/21 01:04:35;;;;;;;8.88;6.95;;;13.50;77.50;;;;;;5023893;28;20069;-56
2022/12/21 01:07:07;;;;;;;13.18;7.78;;;13.50;77.60;;;;;;5050010;28;20116;-56
2022/12/21 01:09:33;;;;;;;8.70;7.47;;;13.50;77.60;;;;;;5049222;28;20124;-56
2022/12/21 01:12:02;;;;;;;9.77;7.13;;;13.50;77.60;;;;;;5045155;28;20452;-56
2022/12/21 01:14:34;;;;;;;9.23;7.35;;;13.40;77.50;;;;;;5040974;28;20041;-56
2022/12/21 01:17:00;;;;;;;8.57;7.60;;;13.50;77.60;;;;;;5044128;28;20050;-56
2022/12/21 01:19:27;;;;;;;8.43;7.47;;;13.50;77.50;;;;;;5033877;28;20048;-56
2022/12/21 01:21:54;;;;;;;8.38;7.50;;;13.50;77.50;;;;;;5033091;28;20045;-56
2022/12/21 01:24:21;;;;;;;9.90;7.55;;;13.50;77.60;;;;;;5037965;28;20486;-56
2022/12/21 01:26:47;;;;;;;7.95;6.68;;;13.50;77.60;;;;;;5029082;28;20052;-56
2022/12/21 01:29:17;;;;;;;9.40;8.40;;;13.50;77.70;;;;;;5037806;28;20036;-56
2022/12/21 01:31:45;;;;;;;9.13;7.70;;;13.50;77.90;;;;;;5039598;28;20045;-55
2022/12/21 01:34:15;;;;;;;10.80;7.43;;;13.50;77.80;;;;;;5048637;28;20045;-56
2022/12/21 01:36:47;;;;;;;8.57;7.05;;;13.50;77.90;;;;;;5046688;28;20071;-56
2022/12/21 01:39:14;;;;;;;9.85;8.07;;;13.50;77.80;;;;;;5039418;28;20091;-56
2022/12/21 01:41:41;;;;;;;9.32;7.45;;;13.50;78.50;;;;;;5039441;28;20087;-55
2022/12/21 01:44:44;;;;;;;8.05;7.15;;;13.50;77.80;;;;;;5050469;28;20119;-56
2022/12/21 01:47:19;;;;;;;9.90;7.68;;;13.50;78.10;;;;;;5047797;28;20112;-56
2022/12/21 01:49:57;;;;;;;10.52;7.80;;;13.50;77.70;;;;;;5043794;28;20041;-56
2022/12/21 01:52:24;;;;;;;10.43;8.43;;;13.50;77.60;;;;;;5037361;28;20568;-56
2022/12/21 01:55:02;;;;;;;9.65;7.93;;;13.50;77.60;;;;;;5046643;28;20472;-56
2022/12/21 01:57:34;;;;;;;10.15;8.38;;;13.50;77.90;;;;;;5039880;28;20091;-56
2022/12/21 02:00:08;;;;;;;11.98;8.55;;;13.50;77.70;;;;;;5035859;28;20033;-56
2022/12/21 02:02:59;;;;;;;10.55;8.00;;;13.50;77.60;;;;;;5032780;28;20424;-55
2022/12/21 02:05:53;;;;;;;11.00;8.25;;;13.50;77.90;;;;;;5028081;28;20147;-56
2022/12/21 02:08:23;;;;;;;9.90;8.18;;;13.50;77.70;;;;;;5048699;28;20037;-56
2022/12/21 02:10:53;;;;;;;11.00;8.88;;;13.50;77.50;;;;;;5039426;28;20099;-56
2022/12/21 02:13:22;;;;;;;11.00;9.05;;;13.50;77.50;;;;;;5049758;28;20506;-56
2022/12/21 02:16:23;;;;;;;11.93;8.45;;;13.40;77.40;;;;;;5042860;28;20052;-56
2022/12/21 02:19:02;;;;;;;16.25;10.80;;;13.40;77.90;;;;;;5046163;28;20128;-56
2022/12/21 02:21:53;;;;;;;18.23;12.40;;;13.50;77.70;;;;;;5043448;28;20045;-56
2022/12/21 02:24:43;;;;;;;18.10;11.70;;;13.50;77.70;;;;;;5029862;28;20406;-56
2022/12/21 02:27:13;;;;;;;20.48;12.15;;;13.40;77.90;;;;;;5044890;28;20071;-56
2022/12/21 02:30:00;;;;;;;18.70;12.57;;;13.40;77.60;;;;;;5039389;28;20107;-56
2022/12/21 02:32:35;;;;;;;17.33;12.18;;;13.40;77.80;;;;;;5048121;28;20128;-56
2022/12/21 02:35:30;;;;;;;16.20;10.93;;;13.40;77.80;;;;;;5040142;28;20040;-56
2022/12/21 02:38:09;;;;;;;16.08;10.90;;;13.40;78.10;;;;;;5044760;28;20042;-56
2022/12/21 02:40:58;;;;;;;16.23;12.23;;;13.40;77.90;;;;;;5028394;28;20390;-56
2022/12/21 02:44:14;;;;;;;13.80;10.32;;;13.40;77.80;;;;;;5031461;28;20291;-55
2022/12/21 02:47:08;;;;;;;13.55;10.57;;;13.40;77.90;;;;;;5048776;28;20409;-56
2022/12/21 02:49:52;;;;;;;13.10;8.63;;;13.40;77.90;;;;;;5047326;28;20125;-56
2022/12/21 02:52:50;;;;;;;11.95;9.88;;;13.40;77.70;;;;;;5043448;28;20112;-56
2022/12/21 02:55:19;;;;;;;13.88;9.38;;;13.40;77.90;;;;;;5033352;28;20068;-56
2022/12/21 02:57:49;;;;;;;12.00;8.45;;;13.40;77.70;;;;;;5043830;28;20072;-56
2022/12/21 03:00:21;;;;;;;11.77;8.18;;;13.40;77.80;;;;;;5046672;28;20620;-56
2022/12/21 03:06:11;;;;;;;11.77;8.52;;;13.50;77.90;;;;;;5050554;28;20033;-56
2022/12/21 03:09:01;;;;;;;10.45;7.57;;;13.40;77.70;;;;;;5058776;28;20394;-56
2022/12/21 03:11:54;;;;;;;26.45;8.30;;;13.50;77.90;;;;;;5034459;28;20041;-55
2022/12/21 03:14:38;;;;;;;6.25;5.55;;;13.40;77.50;;;;;;5012881;28;20040;-56
2022/12/21 03:17:35;;;;;;;12.15;5.75;;;13.40;77.40;;;;;;5036300;28;20041;-56
2022/12/21 03:20:32;;;;;;;5.80;5.30;;;13.50;77.40;;;;;;5051558;28;20049;-57
2022/12/21 03:23:16;;;;;;;4.97;4.47;;;13.40;77.20;;;;;;5040252;28;20514;-56
2022/12/21 03:25:51;;;;;;;6.05;4.47;;;13.40;77.10;;;;;;5041377;28;20095;-56
2022/12/21 03:28:24;;;;;;;5.03;4.43;;;13.40;76.90;;;;;;5036810;28;20092;-56
2022/12/21 03:30:51;;;;;;;;;;;13.40;76.90;;;;;;5036797;28;20049;-56
2022/12/21 03:33:31;;;;;;;19.20;5.05;;;13.50;77.10;;;;;;5046964;28;19966;-56
2022/12/21 03:36:07;;;;;;;6.72;4.88;;;13.40;76.60;;;;;;5043893;28;20045;-56
2022/12/21 03:38:44;;;;;;;26.00;6.50;;;13.40;76.70;;;;;;5050393;28;20527;-56
2022/12/21 03:41:22;;;;;;;5.68;4.70;;;13.30;76.60;;;;;;5036354;28;20038;-56
2022/12/21 03:43:53;;;;;;;4.50;3.92;;;13.40;76.80;;;;;;5040566;28;20107;-56
2022/12/21 03:46:29;;;;;;;10.68;5.30;;;13.40;76.90;;;;;;5031293;28;20041;-55
2022/12/21 03:49:07;;;;;;;19.30;6.22;;;13.30;76.90;;;;;;5043354;28;20049;-56
2022/12/21 03:51:59;;;;;;;6.97;5.13;;;13.30;77.10;;;;;;5047124;28;20124;-56
2022/12/21 03:54:30;;;;;;;21.73;6.30;;;13.30;77.10;;;;;;5029687;28;20057;-56
2022/12/21 03:57:06;;;;;;;13.05;6.60;;;13.30;77.00;;;;;;5035129;28;20047;-56
2022/12/21 03:59:35;;;;;;;38.33;7.95;;;13.30;76.90;;;;;;5039108;28;20046;-56
2022/12/21 04:02:17;;;;;;;19.30;6.32;;;13.30;76.90;;;;;;5040420;28;20540;-55
2022/12/21 04:04:53;;;;;;;;;;;13.30;76.90;;;;;;5050533;28;20131;-56
2022/12/21 04:07:24;;;;;;;18.27;5.13;;;13.40;77.20;;;;;;5050767;28;19975;-55
2022/12/21 04:09:58;;;;;;;7.47;4.28;;;13.30;76.60;;;;;;5035212;28;20071;-56
2022/12/21 04:12:39;;;;;;;6.00;3.83;;;13.40;76.60;;;;;;5039316;28;20038;-56
2022/12/21 04:15:15;;;;;;;13.40;4.97;;;13.30;76.50;;;;;;5031375;28;20068;-56
2022/12/21 04:17:48;;;;;;;25.42;6.28;;;13.30;76.40;;;;;;5045986;28;20037;-56
2022/12/21 04:20:18;;;;;;;8.63;5.40;;;13.30;76.50;;;;;;5042282;28;20125;-56
2022/12/21 04:28:29;;;;;;;9.00;6.18;;;13.30;76.70;;;;;;5043226;28;20473;-56
2022/12/21 04:31:18;;;;;;;9.18;6.45;;;13.30;76.70;;;;;;5038696;28;20608;-59
2022/12/21 04:33:45;;;;;;;8.38;6.30;;;13.30;76.60;;;;;;5031604;28;20437;-56
2022/12/21 04:38:57;;;;;;;7.78;5.03;;;13.30;76.50;;;;;;5048628;28;20042;-57
2022/12/21 04:41:29;;;;;;;8.45;4.10;;;13.20;76.40;;;;;;5038927;28;20069;-56
2022/12/21 04:43:55;;;;;;;7.85;5.65;;;13.20;76.30;;;;;;5041975;28;20048;-56
2022/12/21 04:46:22;;;;;;;5.63;4.93;;;13.20;76.40;;;;;;5044570;28;20036;-55
2022/12/21 04:48:51;;;;;;;10.80;7.28;;;13.20;76.50;;;;;;5041665;28;20052;-56
2022/12/21 04:51:22;;;;;;;6.00;5.05;;;13.20;76.60;;;;;;5039453;28;20042;-56
2022/12/21 04:53:54;;;;;;;;;;;13.20;76.60;;;;;;5038029;28;20034;-56
2022/12/21 04:56:21;;;;;;;7.05;5.70;;;13.30;76.70;;;;;;5043071;28;19976;-56
2022/12/21 04:58:49;;;;;;;5.88;5.07;;;13.20;76.30;;;;;;5042182;28;20041;-55
2022/12/21 05:01:18;;;;;;;6.25;5.28;;;13.20;76.30;;;;;;5040542;28;20045;-55
2022/12/21 05:03:48;;;;;;;6.15;5.22;;;13.20;76.20;;;;;;5039767;28;20037;-56
2022/12/21 05:06:19;;;;;;;5.68;4.47;;;13.20;76.10;;;;;;5044908;28;20033;-55
2022/12/21 05:08:49;;;;;;;5.72;5.07;;;13.20;76.00;;;;;;5040993;28;20029;-56
2022/12/21 05:11:24;;;;;;;6.75;5.25;;;13.20;75.90;;;;;;5038205;28;20580;-56
2022/12/21 05:13:52;;;;;;;7.53;6.47;;;13.20;75.80;;;;;;5043109;28;20037;-58
2022/12/21 05:16:22;;;;;;;6.65;5.45;;;13.20;75.80;;;;;;5042304;28;20072;-56
2022/12/21 05:18:53;;;;;;;7.53;6.28;;;13.20;75.70;;;;;;5039974;28;20116;-56
2022/12/21 05:21:25;;;;;;;7.75;5.97;;;13.20;75.60;;;;;;5040587;28;20041;-57
2022/12/21 05:23:52;;;;;;;8.27;5.65;;;13.20;75.60;;;;;;5040051;28;20456;-57
2022/12/21 05:26:21;;;;;;;6.72;5.40;;;13.10;75.50;;;;;;5047879;28;20142;-56
2022/12/21 05:28:48;;;;;;;12.07;6.22;;;13.10;75.50;;;;;;5042370;28;20041;-57
2022/12/21 05:31:15;;;;;;;7.93;6.20;;;13.10;75.50;;;;;;5042457;28;20120;-57
2022/12/21 05:33:43;;;;;;;6.47;5.30;;;13.10;75.50;;;;;;5049380;28;20041;-58
2022/12/21 05:36:14;;;;;;;7.90;6.15;;;13.10;75.50;;;;;;5038352;28;20480;-58
2022/12/21 05:38:44;;;;;;;5.47;4.82;;;13.10;75.40;;;;;;5040682;28;20045;-58
2022/12/21 05:41:20;;;;;;;4.65;4.25;;;13.00;75.20;;;;;;5038552;28;20409;-57
2022/12/21 05:43:51;;;;;;;5.40;4.07;;;13.00;75.20;;;;;;5044866;28;20524;-57
2022/12/21 05:46:23;;;;;;;4.43;4.03;;;13.00;75.20;;;;;;5041553;28;20044;-57
2022/12/21 05:48:55;;;;;;;4.00;3.47;;;13.00;75.30;;;;;;5045329;28;20120;-57
2022/12/21 05:51:23;;;;;;;5.68;2.90;;;13.00;75.30;;;;;;5041198;28;20041;-58
2022/12/21 05:53:52;;;;;;;5.32;3.53;;;13.00;75.20;;;;;;5037980;28;20049;-57
2022/12/21 05:56:19;;;;;;;6.50;4.13;;;13.00;75.40;;;;;;5038734;28;20041;-57
2022/12/21 05:58:45;;;;;;;3.17;2.88;;;13.00;75.50;;;;;;5035998;28;20144;-57
2022/12/21 06:01:13;;;;;;;7.20;3.67;;;13.00;75.40;;;;;;5042388;28;20482;-57
2022/12/21 06:03:40;;;;;;;15.07;4.68;;;13.00;75.40;;;;;;5047484;28;20079;-57
2022/12/21 06:06:18;;;;;;;7.47;4.50;;;13.00;75.40;;;;;;5028603;28;20076;-57
2022/12/21 06:08:47;;;;;;;6.30;4.78;;;13.00;75.50;;;;;;5040587;28;20053;-57
2022/12/21 06:11:20;;;;;;;5.97;4.80;;;13.00;75.60;;;;;;5036428;28;20087;-58
2022/12/21 06:13:48;;;;;;;4.30;3.72;;;13.00;75.60;;;;;;5038030;28;20040;-57
2022/12/21 06:16:20;;;;;;;8.98;4.78;;;13.00;75.60;;;;;;5037864;28;20457;-58
2022/12/21 06:18:48;;;;;;;4.65;3.75;;;12.90;75.60;;;;;;5035323;28;20049;-58
2022/12/21 06:21:23;;;;;;;5.80;4.53;;;13.00;75.70;;;;;;5045341;28;20045;-57
2022/12/21 06:23:52;;;;;;;5.38;4.07;;;12.90;75.60;;;;;;5047707;28;20041;-58
2022/12/21 06:26:21;;;;;;;8.50;5.20;;;13.00;75.70;;;;;;5046397;28;20041;-57
2022/12/21 06:28:50;;;;;;;7.93;5.20;;;12.90;75.70;;;;;;5044392;28;20598;-57
2022/12/21 06:31:22;;;;;;;6.40;5.53;;;13.00;75.80;;;;;;5042374;28;20126;-58
2022/12/21 06:33:51;;;;;;;11.80;5.80;;;12.90;75.70;;;;;;5034269;28;20041;-58
2022/12/21 06:36:18;;;;;;;8.80;6.50;;;12.90;75.50;;;;;;5045326;28;20517;-58
2022/12/21 06:38:45;;;;;;;9.30;5.88;;;13.00;75.60;;;;;;5039057;28;20053;-57
2022/12/21 06:41:13;;;;;;;9.95;6.50;;;13.00;75.70;;;;;;5031591;28;20081;-57
2022/12/21 06:43:42;;;;;;;6.45;5.35;;;12.90;75.60;;;;;;5030405;28;20084;-57
2022/12/21 06:46:14;;;;;;;8.43;6.97;;;13.00;75.60;;;;;;5035600;28;20069;-57
2022/12/21 06:48:41;;;;;;;;;;;12.90;75.60;;;;;;5038748;28;20076;-57
2022/12/21 06:51:27;;;;;;;13.07;8.52;;;13.00;75.70;;;;;;5039007;28;19932;-57
2022/12/21 06:53:54;;;;;;;14.77;9.45;;;12.90;75.60;;;;;;5039759;28;20120;-57
2022/12/21 06:56:24;;;;;;;11.48;8.32;;;12.90;75.50;;;;;;5038333;28;20502;-57
2022/12/21 06:58:53;;;;;;;12.07;8.50;;;12.90;75.60;;;;;;5043712;28;20452;-57
2022/12/21 07:01:23;;;;;;;8.07;6.65;;;12.90;75.70;;;;;;5037845;28;20470;-57
2022/12/21 07:03:51;;;;;;;10.98;7.55;;;12.90;75.70;;;;;;5048096;28;20056;-55
2022/12/21 07:06:19;;;;;;;9.73;6.90;;;12.90;75.60;;;;;;5041461;28;20048;-56
2022/12/21 07:08:49;;;;;;;10.32;7.55;;;12.90;75.60;;;;;;5037848;28;20120;-57
2022/12/21 07:11:18;;;;;;;8.55;6.85;;;12.90;75.60;;;;;;5045485;28;20456;-58
2022/12/21 07:13:47;;;;;;;9.93;7.63;;;12.90;75.50;;;;;;5043705;28;20044;-57
2022/12/21 07:16:14;;;;;;;8.23;6.90;;;12.90;75.50;;;;;;5044996;28;20053;-56
2022/12/21 07:18:42;;;;;;;11.55;7.88;;;12.80;75.50;;;;;;5037197;28;20042;-56
2022/12/21 07:21:15;;;;;;;9.63;7.18;;;12.90;75.60;;;;;;5035374;28;20523;-57
2022/12/21 07:23:42;;;;;;;10.18;7.85;;;12.90;75.70;;;;;;5040654;28;20045;-56
2022/12/21 07:26:12;;;;;;;11.55;7.80;;;12.80;75.50;;;;;;5043623;28;20033;-56
2022/12/21 07:28:39;;;;;;;13.50;8.35;;;12.80;75.50;;;;;;5040747;28;20044;-57
2022/12/21 07:31:09;;;;;;;13.30;8.43;;;12.80;75.40;;;;;;5030236;28;20067;-57
2022/12/21 07:33:40;;;;;;;12.70;8.25;;;12.80;75.40;;;;;;5044017;28;20045;-56
2022/12/21 07:36:08;;;;;;;13.55;9.55;;;12.80;75.40;;;;;;5050709;28;20041;-55
2022/12/21 07:38:36;;;;;;;13.57;9.70;;;12.80;75.40;;;;;;5037095;28;20048;-57
2022/12/21 07:41:04;;;;;;;14.93;9.80;;;12.80;75.40;;;;;;5052191;28;20045;-57
2022/12/21 07:43:32;;;;;;;16.80;9.45;;;12.80;75.40;;;;;;5050461;28;20048;-56
2022/12/21 07:46:12;;;;;;;14.23;10.25;;;12.80;75.50;;;;;;5043765;28;20560;-58
2022/12/21 07:48:39;;;;;;;14.73;10.25;;;12.80;75.50;;;;;;5041673;28;20045;-57
2022/12/21 07:51:07;;;;;;;16.80;11.27;;;12.80;75.60;;;;;;5031216;28;20133;-56
2022/12/21 07:53:34;;;;;;;15.13;10.23;;;12.80;75.60;;;;;;5035323;28;20072;-57
2022/12/21 07:56:05;;;;;;;13.85;9.75;;;12.80;75.60;;;;;;5033238;28;20566;-57
2022/12/21 07:58:33;;;;;;;15.93;10.20;;;12.80;75.60;;;;;;5038778;28;20053;-57
2022/12/21 08:01:12;;;;;;;13.98;10.65;;;12.80;75.60;;;;;;5031630;28;20122;-57
2022/12/21 08:03:41;;;;;;;14.85;10.20;;;12.80;75.60;;;;;;5022774;28;20417;-57
2022/12/21 08:06:08;;;;;;;16.13;10.15;;;12.80;75.60;;;;;;5034364;28;20091;-58
2022/12/21 08:08:35;;;;;;;12.68;10.23;;;12.80;75.60;;;;;;5038787;28;20671;-57
2022/12/21 08:11:02;;;;;;;13.75;9.68;;;12.80;75.60;;;;;;5044540;28;20064;-57
2022/12/21 08:13:29;;;;;;;14.63;10.57;;;12.80;75.70;;;;;;5041059;28;20080;-57
2022/12/21 08:16:01;;;;;;;15.60;11.48;;;12.80;75.70;;;;;;5033460;28;20045;-57
2022/12/21 08:18:28;;;;;;;18.53;11.93;;;12.80;75.60;;;;;;5031840;28;21392;-56
2022/12/21 08:20:56;;;;;;;16.83;12.57;;;12.80;75.40;;;;;;5034767;28;20033;-57
2022/12/21 08:23:23;;;;;;;15.98;12.15;;;12.90;75.30;;;;;;5045081;28;20504;-57
2022/12/21 08:25:50;;;;;;;16.63;12.00;;;12.80;75.20;;;;;;5040333;28;20042;-57
2022/12/21 08:28:17;;;;;;;17.95;11.85;;;12.80;75.30;;;;;;5032995;28;20447;-56
2022/12/21 08:30:43;;;;;;;20.00;12.50;;;12.70;75.20;;;;;;5035857;28;20045;-57
2022/12/21 08:33:10;;;;;;;15.52;11.60;;;12.70;75.20;;;;;;5050538;28;20112;-57
2022/12/21 08:35:37;;;;;;;18.05;11.52;;;12.70;75.40;;;;;;5041558;28;20041;-58
2022/12/21 08:38:04;;;;;;;18.55;13.52;;;12.70;76.10;;;;;;5050819;28;20479;-57
2022/12/21 08:40:31;;;;;;;20.88;14.02;;;12.60;75.50;;;;;;5041479;28;20047;-57
2022/12/21 08:42:58;;;;;;;21.27;13.05;;;12.60;75.60;;;;;;5048341;28;20160;-57
2022/12/21 08:45:24;;;;;;;15.93;11.57;;;12.60;75.80;;;;;;5042846;28;20152;-57
2022/12/21 08:47:51;;;;;;;17.30;12.00;;;12.70;76.00;;;;;;5047521;28;20059;-57
2022/12/21 08:50:19;;;;;;;14.43;11.07;;;12.60;76.00;;;;;;5044817;28;20673;-57
2022/12/21 08:52:46;;;;;;;17.95;11.48;;;12.70;76.00;;;;;;5039843;28;20081;-57
2022/12/21 08:55:13;;;;;;;16.23;11.77;;;12.70;76.00;;;;;;5033112;28;20096;-57
2022/12/21 08:57:39;;;;;;;18.77;13.45;;;12.70;75.90;;;;;;5037598;28;20124;-58
2022/12/21 09:00:10;;;;;;;20.33;14.63;;;12.70;75.90;;;;;;5031825;28;20046;-57
2022/12/21 09:02:37;;;;;;;25.33;17.20;;;12.70;75.90;;;;;;5037385;28;20048;-57
2022/12/21 09:05:04;;;;;;;23.52;16.80;;;12.70;75.80;;;;;;5040421;28;20405;-57
2022/12/21 09:07:31;;;;;;;29.05;20.25;;;12.70;75.70;;;;;;5043887;28;20110;-57
2022/12/21 09:09:58;;;;;;;26.75;19.13;;;12.70;75.60;;;;;;5039510;28;20046;-57
2022/12/21 09:12:25;;;;;;;25.83;17.45;;;12.70;75.60;;;;;;5030329;28;20541;-57
2022/12/21 09:14:52;;;;;;;20.40;15.45;;;12.70;75.60;;;;;;5030609;28;20041;-55
2022/12/21 09:17:19;;;;;;;16.70;12.10;;;12.70;75.50;;;;;;5036248;28;20059;-57
2022/12/21 09:19:54;;;;;;;17.02;11.45;;;12.70;75.50;;;;;;5046329;28;20041;-57
2022/12/21 09:22:23;;;;;;;17.25;12.32;;;12.70;75.50;;;;;;5041236;28;20049;-58
2022/12/21 09:24:49;;;;;;;15.90;12.23;;;12.70;75.60;;;;;;5029494;28;20103;-57
2022/12/21 09:27:16;;;;;;;17.40;12.57;;;12.70;75.70;;;;;;5038327;28;20136;-57
2022/12/21 09:29:44;;;;;;;15.48;11.90;;;12.70;75.80;;;;;;5045969;28;20045;-57
2022/12/21 09:32:11;;;;;;;14.93;10.60;;;12.70;75.80;;;;;;5031716;28;20186;-56
2022/12/21 09:34:38;;;;;;;14.15;9.88;;;12.80;75.80;;;;;;5043019;28;20041;-57
2022/12/21 09:37:04;;;;;;;14.27;9.30;;;12.80;75.60;;;;;;5049221;28;20120;-57
2022/12/21 09:39:50;;;;;;;12.43;8.90;;;12.80;75.40;;;;;;5040479;28;20095;-57
2022/12/21 09:42:35;;;;;;;14.98;10.95;;;12.80;75.20;;;;;;5048653;28;20807;-57
2022/12/21 09:45:23;;;;;;;15.40;10.48;;;12.80;75.10;;;;;;5044938;28;20068;-57
2022/12/21 09:48:02;;;;;;;15.82;11.38;;;12.80;75.70;;;;;;5041815;28;20195;-55
2022/12/21 09:51:01;;;;;;;15.65;11.82;;;12.80;75.20;;;;;;5037594;28;20038;-57
2022/12/21 09:53:37;;;;;;;14.98;11.20;;;12.80;75.00;;;;;;5017354;28;20687;-57
2022/12/21 09:56:04;;;;;;;15.05;11.43;;;12.80;75.00;;;;;;5032905;28;20080;-57
2022/12/21 09:59:01;;;;;;;15.27;11.98;;;12.70;74.90;;;;;;5028420;28;20068;-57
2022/12/21 10:01:27;;;;;;;15.10;11.40;;;12.80;75.20;;;;;;5028183;28;20421;-58
2022/12/21 10:04:09;;;;;;;18.52;12.68;;;12.70;74.90;;;;;;5033130;28;20056;-58
2022/12/21 10:06:56;;;;;;;13.07;9.77;;;12.70;75.00;;;;;;5045572;28;20124;-58
2022/12/21 10:09:51;;;;;;;15.88;9.32;;;12.80;74.90;;;;;;5037322;28;20044;-57
2022/12/21 10:12:20;;;;;;;8.93;6.40;;;12.70;74.90;;;;;;5039065;28;20071;-57
2022/12/21 10:15:08;;;;;;;9.25;6.25;;;12.70;74.90;;;;;;5039763;28;20051;-57
2022/12/21 10:17:59;;;;;;;10.98;6.55;;;12.70;75.00;;;;;;5037939;28;20132;-57
2022/12/21 10:20:46;;;;;;;12.20;6.18;;;12.70;74.90;;;;;;5028392;28;20041;-57
2022/12/21 10:23:20;;;;;;;7.45;4.68;;;12.70;75.00;;;;;;5036398;28;20076;-57
2022/12/21 10:25:50;;;;;;;9.13;6.43;;;12.80;75.10;;;;;;5048042;28;20104;-57
2022/12/21 10:29:08;;;;;;;13.77;6.47;;;12.80;75.20;;;;;;5033899;28;20029;-57
2022/12/21 10:31:40;;;;;;;11.02;5.70;;;12.80;75.00;;;;;;4985508;28;20136;-57
2022/12/21 10:34:33;;;;;;;10.90;5.97;;;12.80;75.00;;;;;;5045723;28;20560;-58
2022/12/21 10:37:02;;;;;;;18.95;7.05;;;12.80;75.00;;;;;;5041120;28;20043;-57
2022/12/21 10:39:30;;;;;;;9.68;6.43;;;12.90;74.80;;;;;;5048586;28;20048;-57
2022/12/21 10:42:11;;;;;;;8.75;5.75;;;12.90;74.70;;;;;;5045925;28;20037;-57
2022/12/21 10:44:40;;;;;;;10.73;6.40;;;12.90;74.80;;;;;;5037328;28;20100;-57
2022/12/21 10:47:18;;;;;;;10.20;5.88;;;12.90;75.00;;;;;;5041480;28;20095;-57
2022/12/21 10:50:04;;;;;;;11.90;6.93;;;12.90;75.00;;;;;;5047024;28;20121;-57
2022/12/21 10:52:36;;;;;;;10.00;6.15;;;13.00;75.00;;;;;;5046650;28;20045;-55
2022/12/21 10:55:05;;;;;;;12.30;6.57;;;13.00;74.80;;;;;;5030261;28;20805;-57
2022/12/21 10:57:33;;;;;;;12.32;6.18;;;13.10;74.70;;;;;;5038435;28;20053;-57
2022/12/21 11:00:20;;;;;;;11.07;7.10;;;13.10;74.70;;;;;;5038582;28;20131;-57
2022/12/21 11:02:48;;;;;;;9.70;5.97;;;13.10;74.50;;;;;;5045161;28;20489;-57
2022/12/21 11:05:28;;;;;;;10.63;6.03;;;13.10;74.50;;;;;;5041027;28;20056;-57
2022/12/21 11:08:13;;;;;;;9.57;6.25;;;13.20;74.40;;;;;;5048247;28;20048;-57
2022/12/21 11:10:46;;;;;;;9.77;5.47;;;13.20;74.00;;;;;;5047121;28;20045;-57
2022/12/21 11:13:20;;;;;;;11.38;6.38;;;13.20;74.20;;;;;;5040006;28;20042;-57
2022/12/21 11:16:00;;;;;;;9.57;5.63;;;13.20;74.10;;;;;;5032666;28;20038;-56
2022/12/21 11:18:34;;;;;;;9.27;6.30;;;13.30;73.90;;;;;;5041343;28;20045;-57
2022/12/21 11:21:05;;;;;;;7.95;5.05;;;13.30;73.90;;;;;;5041715;28;20507;-57
2022/12/21 11:23:32;;;;;;;10.50;5.38;;;13.30;73.80;;;;;;5044569;28;20072;-56
2022/12/21 11:26:00;;;;;;;10.63;5.25;;;13.30;73.60;;;;;;5050096;28;20041;-57
2022/12/21 11:28:27;;;;;;;10.30;5.30;;;13.40;73.60;;;;;;5051183;28;20124;-57
2022/12/21 11:31:02;;;;;;;9.77;5.20;;;13.40;73.20;;;;;;5040894;28;20045;-55
2022/12/21 11:33:30;;;;;;;9.15;4.80;;;13.40;73.10;;;;;;5040077;28;20503;-55
2022/12/21 11:36:10;;;;;;;9.70;4.72;;;13.40;73.20;;;;;;5045102;28;20480;-56
2022/12/21 11:38:38;;;;;;;8.57;4.22;;;13.40;73.10;;;;;;5044614;28;20505;-58
2022/12/21 11:41:17;;;;;;;7.28;3.75;;;13.40;73.00;;;;;;5031990;28;20074;-56
2022/12/21 11:43:45;;;;;;;7.57;4.47;;;13.50;72.60;;;;;;5047452;28;20049;-57
2022/12/21 11:46:23;;;;;;;8.30;4.22;;;13.50;72.80;;;;;;5041517;28;20033;-55
2022/12/21 11:49:37;;;;;;;8.52;3.60;;;13.50;72.60;;;;;;5034793;28;20048;-57
2022/12/21 11:52:10;;;;;;;6.22;3.58;;;13.50;72.20;;;;;;5030657;28;20045;-58
2022/12/21 11:55:05;;;;;;;7.13;2.95;;;13.40;72.60;;;;;;5042067;28;20049;-55
2022/12/21 11:57:48;;;;;;;7.45;3.53;;;13.40;72.40;;;;;;5043813;28;20049;-55
2022/12/21 12:00:18;;;;;;;;;;;13.40;72.60;;;;;;5032599;28;20046;-57
2022/12/21 12:03:34;;;;;;;5.78;2.95;;;13.50;72.80;;;;;;5030247;28;19925;-57
2022/12/21 12:06:28;;;;;;;3.92;2.42;;;13.50;72.40;;;;;;5035155;28;20077;-56
2022/12/21 12:09:07;;;;;;;4.15;2.80;;;13.50;72.60;;;;;;5043626;28;20736;-59
2022/12/21 12:11:57;;;;;;;6.30;2.70;;;13.50;72.70;;;;;;5038895;28;20613;-57
2022/12/21 12:14:36;;;;;;;6.65;3.10;;;13.50;72.60;;;;;;5036811;28;20045;-57
2022/12/21 12:17:21;;;;;;;5.18;2.30;;;13.60;72.80;;;;;;5041425;28;20042;-56
2022/12/21 12:20:06;;;;;;;5.68;2.72;;;13.60;72.80;;;;;;5039705;28;20497;-59
2022/12/21 12:22:52;;;;;;;7.47;2.80;;;13.60;72.40;;;;;;5042543;28;20033;-58
2022/12/21 12:25:57;;;;;;;5.55;2.88;;;13.70;72.70;;;;;;5043654;28;20055;-56
2022/12/21 12:28:59;;;;;;;4.15;2.53;;;13.70;72.40;;;;;;4961716;28;20455;-56
2022/12/21 12:32:03;;;;;;;7.82;3.17;;;13.70;72.00;;;;;;4958089;28;20043;-58
2022/12/21 12:34:57;;;;;;;6.13;3.88;;;13.70;72.10;;;;;;5037984;28;20056;-57
2022/12/21 12:37:24;;;;;;;6.80;2.90;;;13.80;71.80;;;;;;5039854;28;20068;-56
2022/12/21 12:40:18;;;;;;;5.38;2.88;;;13.80;72.00;;;;;;5041220;28;20064;-58
2022/12/21 12:42:52;;;;;;;6.65;3.20;;;13.70;71.10;;;;;;5013074;28;20064;-56
2022/12/21 12:45:18;;;;;;;5.72;3.33;;;13.70;71.50;;;;;;5041213;28;20076;-58
2022/12/21 12:48:23;;;;;;;7.93;3.63;;;13.70;72.00;;;;;;5032172;28;20038;-57
2022/12/21 12:50:59;;;;;;;5.93;3.42;;;13.70;71.50;;;;;;5029498;28;20126;-58
2022/12/21 12:53:54;;;;;;;5.72;3.03;;;13.70;71.80;;;;;;5042643;28;20047;-56
2022/12/21 12:56:42;;;;;;;4.20;3.28;;;13.70;71.80;;;;;;5033479;28;20040;-57
2022/12/21 12:59:35;;;;;;;3.67;2.65;;;13.70;71.80;;;;;;5093044;23;20067;-50
2022/12/21 13:02:13;;;;;;;5.32;3.20;;;13.70;71.80;;;;;;5043133;28;20131;-48
2022/12/21 13:05:11;;;;;;;4.10;3.45;;;13.70;71.80;;;;;;5074793;28;20606;-51
2022/12/21 13:07:59;;;;;;;4.82;3.47;;;13.70;71.30;;;;;;5071783;28;20082;-50
2022/12/21 13:11:05;;;;;;;4.07;2.75;;;13.70;71.60;;;;;;5081909;28;20039;-51
2022/12/21 13:13:56;;;;;;;3.13;2.83;;;13.70;71.50;;;;;;5079337;28;20040;-50
2022/12/21 13:16:48;;;;;;;7.22;3.15;;;13.70;71.40;;;;;;5073637;28;20036;-51
2022/12/21 13:19:17;;;;;;;;;;;13.70;71.40;;;;;;5070336;28;20076;-47
2022/12/21 13:21:46;;;;;;;3.60;2.50;;;13.70;71.40;;;;;;5072870;28;19920;-48
2022/12/21 13:24:23;;;;;;;4.63;3.10;;;13.60;71.50;;;;;;5079158;28;20124;-49
2022/12/21 13:26:54;;;;;;;5.32;3.05;;;13.70;71.50;;;;;;5064737;28;20497;-49
2022/12/21 13:29:31;;;;;;;3.72;2.80;;;13.70;71.50;;;;;;5060254;28;20047;-48